Time;durP1;ratioP1;P1;durP2;ratioP2;P2;SDS_P1;SDS_P2;PMS_P1;PMS_P2;Temp;Humidity;BMP_temperature;BMP_pressure;BME280_temperature;BME280_humidity;BME280_pressure;Samples;Min_cycle;Max_cycle;Signal;HPM_P1;HPM_P2
2023/03/10 00:00:23;;;;;;;;;;;;;;;-0.53;60.17;99821.79;107312;1256;123844;-85
2023/03/10 00:03:23;;;;;;;;;;;;;;;-0.54;60.14;99815.57;107387;1259;75348;-86
2023/03/10 00:05:57;;;;;;;;;;;;;;;-0.55;60.37;99811.66;106999;1256;123770;-86
2023/03/10 00:09:00;;;;;;;;;;;;;;;-0.56;60.51;99807.48;107260;1256;59871;-86
2023/03/10 00:11:29;;;;;;;;;;;;;;;-0.57;60.63;99802.29;107321;1256;123634;-86
2023/03/10 00:13:58;;;;;;;;;;;;;;;-0.58;60.69;99803.45;107383;1256;66729;-86
2023/03/10 00:16:45;;;;;;;;;;;;;;;-0.60;60.75;99799.23;107263;1256;71412;-86
2023/03/10 00:19:31;;;;;;;;;;;;;;;-0.59;60.90;99802.53;107176;1256;123502;-87
2023/03/10 00:22:13;;;;;;;;;;;;;;;-0.59;60.92;99799.27;107126;1255;59329;-87
2023/03/10 00:24:58;;;;;;;;;;;;;;;-0.59;61.04;99796.99;107128;1256;123561;-87
2023/03/10 00:27:33;;;;;;;;;;;;;;;-0.59;61.25;99801.69;107277;1256;66847;-86
2023/03/10 00:30:01;;;;;;;;;;;;;;;-0.57;61.16;99797.97;107297;1256;123906;-85
2023/03/10 00:32:30;;;;;;;;;;;;;;;-0.56;61.45;99795.30;107421;1256;60345;-86
2023/03/10 00:35:05;;;;;;;;;;;;;;;-0.55;61.18;99791.90;108079;1256;60547;-86
2023/03/10 00:37:35;;;;;;;;;;;;;;;-0.53;61.39;99790.26;107709;1256;123924;-86
2023/03/10 00:40:25;;;;;;;;;;;;;;;-0.51;61.33;99788.80;107531;1257;66860;-86
2023/03/10 00:42:58;;;;;;;;;;;;;;;-0.51;61.36;99786.42;107417;1259;123582;-86
2023/03/10 00:45:27;;;;;;;;;;;;;;;-0.48;61.67;99781.75;107227;1256;60394;-86
2023/03/10 00:48:04;;;;;;;;;;;;;;;-0.46;61.56;99781.68;107104;1261;60159;-86
2023/03/10 00:50:56;;;;;;;;;;;;;;;-0.46;61.49;99775.99;107441;1256;73870;-86
2023/03/10 00:53:23;;;;;;;;;;;;;;;-0.45;61.65;99768.83;107633;1256;66778;-81
2023/03/10 00:55:58;;;;;;;;;;;;;;;-0.44;61.69;99765.10;107382;1256;123291;-82
2023/03/10 00:58:26;;;;;;;;;;;;;;;-0.43;61.67;99762.40;107481;1255;59027;-81
2023/03/10 01:01:03;;;;;;;;;;;;;;;-0.42;61.76;99751.38;107552;1256;123508;-81
2023/03/10 01:03:30;;;;;;;;;;;;;;;-0.40;61.69;99747.69;107659;1256;72090;-83
2023/03/10 01:05:57;;;;;;;;;;;;;;;-0.38;61.85;99743.14;107488;1256;124291;-83
2023/03/10 01:08:24;;;;;;;;;;;;;;;-0.36;61.92;99740.68;107527;1256;71325;-81
2023/03/10 01:10:51;;;;;;;;;;;;;;;-0.33;62.11;99739.77;107558;1255;60567;-81
2023/03/10 01:13:18;;;;;;;;;;;;;;;-0.31;61.96;99736.61;107475;1256;123625;-81
2023/03/10 01:15:49;;;;;;;;;;;;;;;-0.29;62.11;99730.51;107549;1259;73605;-81
2023/03/10 01:18:17;;;;;;;;;;;;;;;-0.28;62.10;99725.41;107303;1256;124008;-81
2023/03/10 01:20:46;;;;;;;;;;;;;;;-0.27;62.10;99726.48;107269;1256;72725;-82
2023/03/10 01:23:23;;;;;;;;;;;;;;;-0.26;62.22;99726.36;107334;1256;59686;-82
2023/03/10 01:25:50;;;;;;;;;;;;;;;-0.26;62.24;99726.88;107607;1256;123471;-83
2023/03/10 01:28:23;;;;;;;;;;;;;;;-0.26;62.51;99724.45;107726;1256;73930;-82
2023/03/10 01:30:50;;;;;;;;;;;;;;;-0.26;62.86;99724.64;107575;1256;124112;-82
2023/03/10 01:33:33;;;;;;;;;;;;;;;-0.27;63.03;99723.52;107301;1256;71063;-82
2023/03/10 01:36:00;;;;;;;;;;;;;;;-0.28;63.27;99719.51;107327;1255;124500;-81
2023/03/10 01:38:27;;;;;;;;;;;;;;;-0.30;63.54;99715.78;107465;1257;60488;-81
2023/03/10 01:40:54;;;;;;;;;;;;;;;-0.34;63.78;99713.17;107353;1255;73870;-81
2023/03/10 01:43:21;;;;;;;;;;;;;;;-0.38;64.02;99710.89;107795;1256;123541;-81
2023/03/10 01:45:52;;;;;;;;;;;;;;;-0.40;64.17;99701.86;107715;1255;71063;-81
2023/03/10 01:48:19;;;;;;;;;;;;;;;-0.40;64.48;99701.52;107823;1256;123697;-81
2023/03/10 01:50:47;;;;;;;;;;;;;;;-0.41;64.67;99702.66;107559;1257;60298;-81
2023/03/10 01:53:14;;;;;;;;;;;;;;;-0.42;64.87;99699.52;107382;1257;73431;-81
2023/03/10 01:55:42;;;;;;;;;;;;;;;-0.43;64.94;99694.61;107151;1256;123864;-82
2023/03/10 01:58:09;;;;;;;;;;;;;;;-0.47;65.09;99690.65;107331;1256;71210;-82
2023/03/10 02:00:36;;;;;;;;;;;;;;;-0.51;65.21;99687.00;106958;1256;124198;-82
2023/03/10 02:03:13;;;;;;;;;;;;;;;-0.51;65.52;99685.91;107211;1255;60438;-81
2023/03/10 02:05:43;;;;;;;;;;;;;;;-0.54;65.70;99682.34;107231;1255;123767;-82
2023/03/10 02:08:11;;;;;;;;;;;;;;;-0.55;65.84;99683.16;107386;1262;67591;-86
2023/03/10 02:10:47;;;;;;;;;;;;;;;-0.55;66.10;99678.84;107524;1261;72696;-86
2023/03/10 02:13:24;;;;;;;;;;;;;;;-0.56;66.29;99673.08;107404;1256;124291;-87
2023/03/10 02:15:53;;;;;;;;;;;;;;;-0.57;66.44;99667.70;107369;1257;60342;-87
2023/03/10 02:18:34;;;;;;;;;;;;;;;-0.60;66.56;99661.56;107213;1255;123755;-87
2023/03/10 02:24:26;;;;;;;;;;;;;;;-0.64;66.86;99653.25;107026;1255;123536;-86
2023/03/10 02:26:55;;;;;;;;;;;;;;;-0.66;66.99;99647.10;107718;1257;58801;-86
2023/03/10 02:29:24;;;;;;;;;;;;;;;-0.67;67.15;99640.50;107999;1256;60224;-82
2023/03/10 02:31:52;;;;;;;;;;;;;;;-0.69;67.27;99635.23;107261;1256;124941;-87
2023/03/10 02:34:22;;;;;;;;;;;;;;;-0.68;67.59;99638.53;107592;1256;65881;-82
2023/03/10 02:36:49;;;;;;;;;;;;;;;-0.68;67.73;99629.60;107536;1255;124464;-82
2023/03/10 02:39:16;;;;;;;;;;;;;;;-0.67;67.80;99627.56;107549;1256;60464;-83
2023/03/10 02:41:43;;;;;;;;;;;;;;;-0.68;67.83;99626.14;107191;1257;124945;-82
2023/03/10 02:44:11;;;;;;;;;;;;;;;-0.67;68.08;99624.11;107397;1260;72600;-81
2023/03/10 02:46:37;;;;;;;;;;;;;;;-0.67;68.09;99620.88;107599;1255;66026;-82
2023/03/10 02:49:06;;;;;;;;;;;;;;;-0.64;68.16;99612.40;108010;1256;125096;-82
2023/03/10 02:51:34;;;;;;;;;;;;;;;-0.64;68.30;99604.80;107976;1254;59269;-82
2023/03/10 02:54:01;;;;;;;;;;;;;;;-0.63;68.48;99607.10;107757;1256;124611;-82
2023/03/10 02:56:31;;;;;;;;;;;;;;;-0.60;68.56;99605.52;107393;1256;74028;-87
2023/03/10 02:58:58;;;;;;;;;;;;;;;-0.60;68.52;99600.58;107856;1255;66926;-87
2023/03/10 03:01:25;;;;;;;;;;;;;;;-0.58;68.57;99596.84;107587;1256;124443;-87
2023/03/10 03:03:52;;;;;;;;;;;;;;;-0.55;68.76;99596.27;107336;1256;60437;-87
2023/03/10 03:06:21;;;;;;;;;;;;;;;-0.58;68.87;99592.72;107138;1256;123792;-87
2023/03/10 03:08:50;;;;;;;;;;;;;;;-0.61;68.75;99589.11;107367;1257;73892;-86
2023/03/10 03:11:19;;;;;;;;;;;;;;;-0.63;68.93;99585.08;107337;1256;65873;-86
2023/03/10 03:14:01;;;;;;;;;;;;;;;-0.65;68.94;99582.92;106985;1256;123857;-87
2023/03/10 03:16:28;;;;;;;;;;;;;;;-0.67;68.91;99579.33;107344;1256;60667;-86
2023/03/10 03:18:59;;;;;;;;;;;;;;;-0.67;69.12;99575.02;107365;1257;124067;-86
2023/03/10 03:21:26;;;;;;;;;;;;;;;-0.68;69.11;99568.96;107452;1254;73872;-86
2023/03/10 03:23:57;;;;;;;;;;;;;;;-0.66;69.31;99557.69;107208;1256;123826;-87
2023/03/10 03:26:25;;;;;;;;;;;;;;;-0.67;69.29;99550.41;107252;1256;72473;-87
2023/03/10 03:28:52;;;;;;;;;;;;;;;-0.69;69.41;99543.23;106988;1256;60612;-87
2023/03/10 03:31:20;;;;;;;;;;;;;;;-0.73;69.58;99539.08;107080;1256;123819;-82
2023/03/10 03:33:48;;;;;;;;;;;;;;;-0.78;69.48;99538.33;107190;1256;72568;-82
2023/03/10 03:36:15;;;;;;;;;;;;;;;-0.80;69.82;99540.95;107330;1255;123687;-82
2023/03/10 03:38:42;;;;;;;;;;;;;;;-0.84;69.90;99537.64;108920;1257;72821;-82
2023/03/10 03:41:09;;;;;;;;;;;;;;;-0.86;70.06;99530.51;108786;1256;58560;-82
2023/03/10 03:43:37;;;;;;;;;;;;;;;-0.87;70.05;99533.34;107484;1256;124658;-82
2023/03/10 03:46:10;;;;;;;;;;;;;;;-0.89;70.05;99528.60;107537;1254;73885;-82
2023/03/10 03:48:37;;;;;;;;;;;;;;;-0.91;70.18;99525.24;107377;1257;124249;-82
2023/03/10 03:51:04;;;;;;;;;;;;;;;-0.91;70.43;99519.73;107394;1257;71101;-82
2023/03/10 03:53:31;;;;;;;;;;;;;;;-0.90;70.46;99516.33;107289;1256;58767;-82
2023/03/10 03:56:04;;;;;;;;;;;;;;;-0.92;70.31;99510.71;107436;1256;60334;-82
2023/03/10 03:58:33;;;;;;;;;;;;;;;-0.92;70.46;99505.23;107571;1256;72259;-82
2023/03/10 04:01:02;;;;;;;;;;;;;;;-0.92;70.52;99498.50;107423;1255;124354;-83
2023/03/10 04:03:29;;;;;;;;;;;;;;;-0.93;70.65;99497.77;107575;1256;71065;-82
2023/03/10 04:05:57;;;;;;;;;;;;;;;-0.91;70.68;99489.08;107518;1257;145557;-82
2023/03/10 04:08:24;;;;;;;;;;;;;;;-0.89;70.77;99486.59;107649;1261;60126;-82
2023/03/10 04:10:53;;;;;;;;;;;;;;;-0.90;70.92;99478.30;108243;1256;71757;-83
2023/03/10 04:13:45;;;;;;;;;;;;;;;-0.88;71.03;99481.65;107412;1256;123734;-88
2023/03/10 04:16:41;;;;;;;;;;;;;;;-0.91;70.97;99473.07;107315;1257;72466;-88
2023/03/10 04:19:26;;;;;;;;;;;;;;;-0.92;71.15;99470.77;107681;1257;123947;-88
2023/03/10 04:22:13;;;;;;;;;;;;;;;-0.95;71.15;99464.76;107171;1256;60125;-87
2023/03/10 04:24:42;;;;;;;;;;;;;;;-0.99;71.02;99454.58;107175;1256;122902;-83
2023/03/10 04:27:10;;;;;;;;;;;;;;;-1.03;71.23;99451.81;107793;1254;65810;-83
2023/03/10 04:29:39;;;;;;;;;;;;;;;-1.01;71.53;99448.30;107657;1255;124913;-83
2023/03/10 04:32:19;;;;;;;;;;;;;;;-0.98;71.58;99451.04;107516;1254;60550;-86
2023/03/10 04:34:46;;;;;;;;;;;;;;;-0.97;71.59;99446.77;107485;1254;60238;-86
2023/03/10 04:37:14;;;;;;;;;;;;;;;-0.96;71.66;99440.08;107530;1254;125029;-82
2023/03/10 04:40:16;;;;;;;;;;;;;;;-0.95;71.58;99438.42;107625;1257;66186;-87
2023/03/10 04:42:49;;;;;;;;;;;;;;;-0.95;71.74;99431.72;107446;1254;124223;-85
2023/03/10 04:45:24;;;;;;;;;;;;;;;-0.94;71.95;99432.96;107639;1253;60671;-89
2023/03/10 04:47:52;;;;;;;;;;;;;;;-0.95;71.90;99423.45;107575;1254;124675;-83
2023/03/10 04:50:25;;;;;;;;;;;;;;;-0.96;72.01;99420.81;107701;1253;73732;-89
2023/03/10 04:53:02;;;;;;;;;;;;;;;-0.99;72.10;99415.86;107867;1258;66966;-87
2023/03/10 04:58:35;;;;;;;;;;;;;;;-0.99;72.15;99409.31;107950;1259;58570;-81
2023/03/10 05:01:06;;;;;;;;;;;;;;;-1.03;72.26;99407.38;107509;1259;123497;-81
2023/03/10 05:03:33;;;;;;;;;;;;;;;-1.05;72.23;99406.08;107531;1256;73969;-80
2023/03/10 05:06:17;;;;;;;;;;;;;;;-1.05;72.42;99398.88;107549;1253;125082;-87
2023/03/10 05:08:43;;;;;;;;;;;;;;;-1.04;72.61;99398.20;107221;1254;72726;-86
2023/03/10 05:11:11;;;;;;;;;;;;;;;-1.05;72.44;99393.35;107320;1254;58652;-81
2023/03/10 05:13:38;;;;;;;;;;;;;;;-1.07;72.58;99388.79;107291;1257;124255;-81
2023/03/10 05:16:14;;;;;;;;;;;;;;;-1.05;72.63;99386.13;107511;1254;73836;-83
2023/03/10 05:18:45;;;;;;;;;;;;;;;-1.06;72.56;99380.56;107392;1255;124749;-82
2023/03/10 05:21:13;;;;;;;;;;;;;;;-1.08;72.52;99381.84;108050;1254;71621;-81
2023/03/10 05:23:40;;;;;;;;;;;;;;;-1.07;72.59;99377.56;107598;1259;124919;-82
2023/03/10 05:26:07;;;;;;;;;;;;;;;-1.07;72.71;99370.36;107909;1259;60332;-85
2023/03/10 05:28:44;;;;;;;;;;;;;;;-1.05;72.86;99363.74;107396;1262;72489;-85
2023/03/10 05:31:14;;;;;;;;;;;;;;;-1.05;72.64;99362.36;107573;1257;125386;-84
2023/03/10 05:33:48;;;;;;;;;;;;;;;-1.04;72.76;99354.30;107701;1254;71654;-85
2023/03/10 05:36:27;;;;;;;;;;;;;;;-1.01;72.92;99353.42;107485;1257;124742;-87
2023/03/10 05:39:00;;;;;;;;;;;;;;;-0.99;72.84;99360.41;107925;1254;60464;-86
2023/03/10 05:41:40;;;;;;;;;;;;;;;-0.99;73.03;99352.84;107658;1254;73889;-86
2023/03/10 05:44:28;;;;;;;;;;;;;;;-0.97;73.09;99339.48;107599;1255;67765;-86
2023/03/10 05:46:56;;;;;;;;;;;;;;;-0.94;73.14;99336.20;107689;1253;71092;-87
2023/03/10 05:49:23;;;;;;;;;;;;;;;-0.92;73.08;99333.88;107565;1254;124485;-89
2023/03/10 05:51:50;;;;;;;;;;;;;;;-0.88;73.23;99335.63;108002;1253;60524;-88
2023/03/10 05:54:17;;;;;;;;;;;;;;;-0.83;73.35;99334.48;107644;1254;124721;-89
2023/03/10 05:56:47;;;;;;;;;;;;;;;-0.78;73.31;99331.78;107945;1257;64855;-90
2023/03/10 05:59:15;;;;;;;;;;;;;;;-0.74;73.20;99324.06;108327;1254;72707;-91
2023/03/10 06:04:34;;;;;;;;;;;;;;;-0.69;73.08;99317.20;107666;1257;59177;-88
2023/03/10 06:07:07;;;;;;;;;;;;;;;-0.66;73.20;99310.96;107639;1254;123631;-86
2023/03/10 06:09:52;;;;;;;;;;;;;;;-0.61;73.24;99305.04;107473;1254;65495;-88
2023/03/10 06:12:32;;;;;;;;;;;;;;;-0.55;73.25;99299.42;107482;1254;123758;-90
2023/03/10 06:15:11;;;;;;;;;;;;;;;-0.51;73.25;99295.81;107398;1260;60261;-89
2023/03/10 06:17:45;;;;;;;;;;;;;;;-0.50;72.90;99295.70;108287;1254;123941;-85
2023/03/10 06:20:12;;;;;;;;;;;;;;;-0.48;73.17;99290.61;108454;1258;71934;-82
2023/03/10 06:22:39;;;;;;;;;;;;;;;-0.49;73.05;99293.15;108385;1257;66884;-82
2023/03/10 06:25:06;;;;;;;;;;;;;;;-0.50;73.20;99293.23;108458;1258;124433;-82
2023/03/10 06:27:33;;;;;;;;;;;;;;;-0.50;73.06;99289.84;107981;1260;58970;-82
2023/03/10 06:30:00;;;;;;;;;;;;;;;-0.50;73.15;99285.66;108002;1259;124471;-82
2023/03/10 06:32:27;;;;;;;;;;;;;;;-0.49;73.18;99283.15;108086;1259;73630;-81
2023/03/10 06:34:57;;;;;;;;;;;;;;;-0.43;73.31;99281.70;107992;1259;67030;-81
2023/03/10 06:37:27;;;;;;;;;;;;;;;-0.32;73.57;99277.17;107834;1259;124690;-82
2023/03/10 06:39:54;;;;;;;;;;;;;;;-0.25;73.36;99278.38;107376;1257;61372;-86
2023/03/10 06:42:21;;;;;;;;;;;;;;;-0.18;73.21;99280.91;107686;1259;124425;-82
2023/03/10 06:44:52;;;;;;;;;;;;;;;-0.11;73.33;99276.23;107877;1256;73880;-86
2023/03/10 06:47:19;;;;;;;;;;;;;;;-0.03;73.14;99271.05;107687;1254;65576;-81
2023/03/10 06:50:04;;;;;;;;;;;;;;;0.02;73.15;99274.17;107666;1258;124884;-86
2023/03/10 06:52:34;;;;;;;;;;;;;;;0.07;73.07;99263.02;107394;1256;61042;-86
2023/03/10 06:55:04;;;;;;;;;;;;;;;0.11;73.05;99264.75;107447;1260;123828;-86
2023/03/10 06:57:53;;;;;;;;;;;;;;;0.14;72.78;99261.95;107730;1254;72626;-87
2023/03/10 07:00:20;;;;;;;;;;;;;;;0.18;72.81;99255.38;107831;1258;123567;-87
2023/03/10 07:02:56;;;;;;;;;;;;;;;0.23;72.93;99249.89;107864;1255;72388;-88
2023/03/10 07:05:31;;;;;;;;;;;;;;;0.24;72.84;99246.81;107764;1261;59624;-87
2023/03/10 07:08:11;;;;;;;;;;;;;;;0.26;72.58;99244.84;107924;1254;123376;-87
2023/03/10 07:10:38;;;;;;;;;;;;;;;0.26;72.57;99244.81;107931;1254;74645;-87
2023/03/10 07:13:24;;;;;;;;;;;;;;;0.32;73.10;99243.22;107610;1255;124448;-87
2023/03/10 07:15:51;;;;;;;;;;;;;;;0.43;72.97;99235.89;107665;1254;71313;-87
2023/03/10 07:18:34;;;;;;;;;;;;;;;0.47;72.73;99232.77;107449;1260;124655;-87
2023/03/10 07:21:20;;;;;;;;;;;;;;;0.59;72.80;99230.47;107396;1254;60456;-87
2023/03/10 07:24:03;;;;;;;;;;;;;;;0.65;72.70;99230.70;107829;1254;124260;-87
2023/03/10 07:26:33;;;;;;;;;;;;;;;0.69;72.47;99227.94;107872;1255;67204;-87
2023/03/10 07:29:01;;;;;;;;;;;;;;;0.74;72.44;99226.58;107634;1254;71239;-82
2023/03/10 07:31:29;;;;;;;;;;;;;;;0.83;72.51;99225.05;107629;1260;124480;-81
2023/03/10 07:33:56;;;;;;;;;;;;;;;0.95;72.43;99223.27;107594;1254;59728;-82
2023/03/10 07:36:23;;;;;;;;;;;;;;;1.04;72.31;99219.10;107450;1254;124337;-82
2023/03/10 07:38:50;;;;;;;;;;;;;;;1.15;72.14;99210.73;107636;1254;66794;-87
2023/03/10 07:41:19;;;;;;;;;;;;;;;1.23;72.17;99204.63;107560;1254;72375;-87
2023/03/10 07:43:46;;;;;;;;;;;;;;;1.25;71.76;99209.01;107364;1254;123737;-86
2023/03/10 07:49:28;;;;;;;;;;;;;;;1.32;71.70;99202.73;107240;1258;123821;-87
2023/03/10 07:52:02;;;;;;;;;;;;;;;1.27;72.06;99198.71;107476;1254;68127;-86
2023/03/10 07:54:29;;;;;;;;;;;;;;;1.22;72.60;99193.88;107344;1254;123490;-87
2023/03/10 07:56:57;;;;;;;;;;;;;;;1.14;72.45;99188.73;107828;1254;60380;-87
2023/03/10 07:59:25;;;;;;;;;;;;;;;1.14;72.21;99187.54;107677;1254;58788;-87
2023/03/10 08:01:52;;;;;;;;;;;;;;;1.15;72.23;99184.10;107495;1254;124569;-82
2023/03/10 08:04:41;;;;;;;;;;;;;;;1.13;71.84;99180.25;107642;1255;67165;-87
2023/03/10 08:07:08;;;;;;;;;;;;;;;1.13;71.90;99171.95;107387;1254;124042;-87
2023/03/10 08:09:39;;;;;;;;;;;;;;;1.16;71.93;99169.99;107462;1259;59267;-81
2023/03/10 08:12:15;;;;;;;;;;;;;;;1.18;71.84;99169.52;107112;1254;125624;-88
2023/03/10 08:14:49;;;;;;;;;;;;;;;1.17;71.64;99164.50;107340;1260;72624;-87
2023/03/10 08:17:19;;;;;;;;;;;;;;;1.14;71.74;99165.23;107587;1254;66844;-82
2023/03/10 08:19:46;;;;;;;;;;;;;;;1.06;71.45;99159.75;107799;1254;123573;-82
2023/03/10 08:22:19;;;;;;;;;;;;;;;1.02;71.47;99159.27;107542;1254;59609;-87
2023/03/10 08:24:55;;;;;;;;;;;;;;;1.02;71.76;99156.16;107590;1253;123509;-87
2023/03/10 08:27:22;;;;;;;;;;;;;;;0.93;71.51;99152.89;107639;1257;73698;-83
2023/03/10 08:29:49;;;;;;;;;;;;;;;0.86;71.58;99143.11;107831;1258;124111;-80
2023/03/10 08:32:18;;;;;;;;;;;;;;;0.82;71.72;99145.89;107819;1254;71379;-81
2023/03/10 08:34:45;;;;;;;;;;;;;;;0.80;71.86;99143.95;107603;1259;59742;-80
2023/03/10 08:37:14;;;;;;;;;;;;;;;0.84;72.03;99138.23;107612;1254;59834;-85
2023/03/10 08:40:06;;;;;;;;;;;;;;;0.80;71.66;99134.11;107425;1255;72595;-85
2023/03/10 08:42:40;;;;;;;;;;;;;;;0.82;72.02;99134.35;107550;1254;67169;-81
2023/03/10 08:45:07;;;;;;;;;;;;;;;0.89;72.02;99135.30;107397;1257;73011;-81
2023/03/10 08:47:37;;;;;;;;;;;;;;;0.89;71.99;99131.87;107734;1269;58987;-80
2023/03/10 08:50:06;;;;;;;;;;;;;;;0.93;72.23;99125.25;107698;1254;123943;-80
2023/03/10 08:52:35;;;;;;;;;;;;;;;1.02;72.32;99123.67;107651;1257;72421;-80
2023/03/10 08:55:04;;;;;;;;;;;;;;;1.09;72.47;99121.35;107798;1254;124149;-80
2023/03/10 08:57:31;;;;;;;;;;;;;;;1.20;72.29;99122.27;107669;1254;72719;-80
2023/03/10 08:59:58;;;;;;;;;;;;;;;1.26;72.12;99117.80;107704;1260;123533;-81
2023/03/10 09:02:28;;;;;;;;;;;;;;;1.28;72.14;99113.55;107837;1257;60407;-80
2023/03/10 09:04:56;;;;;;;;;;;;;;;1.28;72.13;99108.73;107999;1254;72671;-80
2023/03/10 09:07:30;;;;;;;;;;;;;;;1.29;71.92;99107.55;108037;1254;122706;-80
2023/03/10 09:09:57;;;;;;;;;;;;;;;1.28;72.09;99107.86;107878;1254;72389;-82
2023/03/10 09:12:25;;;;;;;;;;;;;;;1.33;72.12;99102.70;107652;1254;124409;-81
2023/03/10 09:14:54;;;;;;;;;;;;;;;1.38;72.26;99096.79;107652;1260;60676;-83
2023/03/10 09:17:21;;;;;;;;;;;;;;;1.37;72.11;99099.39;107984;1254;74120;-81
2023/03/10 09:19:48;;;;;;;;;;;;;;;1.32;71.94;99099.37;107620;1254;124205;-81
2023/03/10 09:22:16;;;;;;;;;;;;;;;1.28;71.92;99095.08;107730;1254;71788;-83
2023/03/10 09:24:51;;;;;;;;;;;;;;;1.26;72.02;99091.21;107455;1259;60283;-82
2023/03/10 09:27:18;;;;;;;;;;;;;;;1.25;71.91;99089.27;107432;1254;60459;-80
2023/03/10 09:29:47;;;;;;;;;;;;;;;1.23;72.27;99090.05;107418;1257;72127;-81
2023/03/10 09:32:14;;;;;;;;;;;;;;;1.32;72.46;99087.08;107531;1257;123706;-81
2023/03/10 09:34:41;;;;;;;;;;;;;;;1.43;72.61;99084.71;107608;1257;72354;-81
2023/03/10 09:37:08;;;;;;;;;;;;;;;1.54;72.34;99083.70;107123;1257;123440;-81
2023/03/10 09:39:35;;;;;;;;;;;;;;;1.60;72.18;99083.74;107073;1258;257700;-81
2023/03/10 09:42:10;;;;;;;;;;;;;;;1.68;72.09;99079.16;107522;1257;124197;-81
2023/03/10 09:44:56;;;;;;;;;;;;;;;1.64;71.90;99076.77;107488;1258;68630;-86
2023/03/10 09:47:49;;;;;;;;;;;;;;;1.77;72.60;99073.41;107427;1257;72725;-87
2023/03/10 09:50:28;;;;;;;;;;;;;;;1.91;72.20;99072.83;107150;1258;58693;-86
2023/03/10 09:52:57;;;;;;;;;;;;;;;1.97;72.08;99070.77;107514;1257;60213;-82
2023/03/10 09:55:26;;;;;;;;;;;;;;;2.04;72.02;99067.37;107316;1256;124394;-86
2023/03/10 09:57:57;;;;;;;;;;;;;;;2.21;72.30;99066.67;107244;1257;67079;-86
2023/03/10 10:00:34;;;;;;;;;;;;;;;2.30;71.70;99062.64;107030;1257;125343;-86
2023/03/10 10:03:22;;;;;;;;;;;;;;;2.30;71.71;99061.08;107267;1256;58591;-87
2023/03/10 10:05:50;;;;;;;;;;;;;;;2.45;71.62;99060.65;107155;1257;59688;-87
2023/03/10 10:08:26;;;;;;;;;;;;;;;2.47;71.25;99056.39;107127;1256;73285;-87
2023/03/10 10:10:58;;;;;;;;;;;;;;;2.45;71.11;99049.23;107398;1254;65481;-86
2023/03/10 10:13:35;;;;;;;;;;;;;;;2.57;71.34;99045.24;107469;1254;123476;-86
2023/03/10 10:16:19;;;;;;;;;;;;;;;2.76;71.18;99039.04;107224;1256;59590;-86
2023/03/10 10:18:50;;;;;;;;;;;;;;;2.97;71.28;99032.19;107222;1257;123399;-86
2023/03/10 10:21:42;;;;;;;;;;;;;;;3.19;71.10;99030.53;107163;1257;74364;-86
2023/03/10 10:24:12;;;;;;;;;;;;;;;3.41;70.75;99031.63;107272;1257;124365;-86
2023/03/10 10:26:40;;;;;;;;;;;;;;;3.53;70.48;99028.98;107386;1255;72228;-82
2023/03/10 10:29:27;;;;;;;;;;;;;;;3.63;70.28;99029.94;107688;1254;60595;-82
2023/03/10 10:32:06;;;;;;;;;;;;;;;3.71;70.02;99020.06;108034;1253;123899;-82
2023/03/10 10:34:33;;;;;;;;;;;;;;;3.63;69.48;99012.77;107444;1257;74342;-82
2023/03/10 10:37:01;;;;;;;;;;;;;;;3.59;69.55;99008.52;107113;1256;124139;-82
2023/03/10 10:39:30;;;;;;;;;;;;;;;3.75;69.72;99005.05;107286;1257;72605;-82
2023/03/10 10:42:13;;;;;;;;;;;;;;;3.86;69.50;98998.91;108106;1254;124560;-82
2023/03/10 10:44:41;;;;;;;;;;;;;;;3.83;69.12;98996.41;107461;1254;60435;-82
2023/03/10 10:47:30;;;;;;;;;;;;;;;3.67;68.84;99002.61;107335;1254;72549;-82
2023/03/10 10:50:28;;;;;;;;;;;;;;;3.46;68.82;99003.86;107345;1256;123323;-82
2023/03/10 10:53:16;;;;;;;;;;;;;;;3.58;69.24;99004.47;107562;1254;72917;-82
2023/03/10 10:55:44;;;;;;;;;;;;;;;3.58;69.07;98998.23;107493;1256;123561;-82
2023/03/10 10:58:31;;;;;;;;;;;;;;;3.44;69.04;98998.08;107698;1254;61274;-82
2023/03/10 11:01:00;;;;;;;;;;;;;;;3.46;69.27;98991.00;107424;1254;123322;-82
2023/03/10 11:03:30;;;;;;;;;;;;;;;3.48;69.23;98989.33;107496;1254;66038;-82
2023/03/10 11:05:59;;;;;;;;;;;;;;;3.51;69.09;98988.34;107379;1254;73213;-82
2023/03/10 11:08:31;;;;;;;;;;;;;;;3.61;69.28;98984.44;107290;1254;58480;-82
2023/03/10 11:11:03;;;;;;;;;;;;;;;3.80;69.31;98977.60;107492;1253;60711;-81
2023/03/10 11:13:50;;;;;;;;;;;;;;;3.96;69.12;98975.02;107284;1254;123376;-81
2023/03/10 11:16:30;;;;;;;;;;;;;;;4.15;69.00;98974.24;107384;1253;65538;-87
2023/03/10 11:19:09;;;;;;;;;;;;;;;4.05;68.20;98979.58;107586;1254;123309;-82
2023/03/10 11:21:39;;;;;;;;;;;;;;;3.81;67.95;98972.62;107894;1254;59525;-81
2023/03/10 11:24:24;;;;;;;;;;;;;;;3.81;68.38;98967.59;107417;1254;124161;-82
2023/03/10 11:27:03;;;;;;;;;;;;;;;3.73;69.26;98970.15;107457;1254;73901;-87
2023/03/10 11:29:54;;;;;;;;;;;;;;;3.75;68.96;98967.42;107246;1256;67801;-81
2023/03/10 11:32:24;;;;;;;;;;;;;;;3.72;68.32;98967.20;107366;1260;123227;-81
2023/03/10 11:34:54;;;;;;;;;;;;;;;3.73;68.40;98964.60;107512;1256;59307;-81
2023/03/10 11:37:32;;;;;;;;;;;;;;;3.81;68.46;98960.10;107362;1256;123555;-81
2023/03/10 11:40:06;;;;;;;;;;;;;;;3.93;68.40;98958.81;107927;1256;72581;-81
2023/03/10 11:42:39;;;;;;;;;;;;;;;3.99;68.40;98951.15;107940;1257;124092;-81
2023/03/10 11:45:13;;;;;;;;;;;;;;;3.95;68.02;98942.21;107367;1256;71162;-81
2023/03/10 11:47:47;;;;;;;;;;;;;;;3.98;68.15;98939.66;107344;1256;60472;-81
2023/03/10 11:50:14;;;;;;;;;;;;;;;3.97;67.98;98938.41;107400;1256;124274;-81
2023/03/10 11:52:41;;;;;;;;;;;;;;;4.11;68.14;98946.19;107436;1256;72571;-81
2023/03/10 11:55:11;;;;;;;;;;;;;;;4.20;67.89;98946.04;107024;1256;124081;-86
2023/03/10 11:57:57;;;;;;;;;;;;;;;4.17;67.61;98949.10;106951;1256;72581;-86
2023/03/10 12:00:28;;;;;;;;;;;;;;;3.85;67.12;98954.64;107109;1259;124305;-85
2023/03/10 12:03:14;;;;;;;;;;;;;;;3.60;67.38;98950.23;107410;1255;60335;-85
2023/03/10 12:05:43;;;;;;;;;;;;;;;3.55;67.77;98947.35;107521;1256;73990;-87
2023/03/10 12:08:17;;;;;;;;;;;;;;;3.60;67.98;98947.83;107450;1256;123606;-86
2023/03/10 12:10:45;;;;;;;;;;;;;;;3.63;67.88;98943.56;107470;1256;71378;-80
2023/03/10 12:13:26;;;;;;;;;;;;;;;3.60;67.89;98942.11;107442;1256;123864;-82
2023/03/10 12:15:54;;;;;;;;;;;;;;;3.64;68.01;98945.48;107366;1257;60631;-83
2023/03/10 12:18:21;;;;;;;;;;;;;;;3.57;67.69;98944.61;107262;1256;123595;-83
2023/03/10 12:21:10;;;;;;;;;;;;;;;3.58;67.83;98936.48;107608;1257;64792;-81
2023/03/10 12:23:38;;;;;;;;;;;;;;;3.69;67.98;98933.64;107824;1254;72699;-81
2023/03/10 12:26:05;;;;;;;;;;;;;;;3.74;67.77;98935.11;107303;1257;124274;-81
2023/03/10 12:28:38;;;;;;;;;;;;;;;3.78;67.88;98933.48;107611;1255;60140;-80
2023/03/10 12:31:05;;;;;;;;;;;;;;;3.78;67.64;98927.07;107519;1257;123928;-81
2023/03/10 12:33:41;;;;;;;;;;;;;;;3.67;69.64;98927.33;107735;1255;65818;-81
2023/03/10 12:36:11;;;;;;;;;;;;;;;3.57;70.70;98927.63;107500;1255;124013;-81
2023/03/10 12:38:57;;;;;;;;;;;;;;;3.48;71.07;98926.73;107606;1258;60436;-80
2023/03/10 12:41:27;;;;;;;;;;;;;;;3.47;71.25;98919.58;107483;1255;59724;-81
2023/03/10 12:44:00;;;;;;;;;;;;;;;3.50;71.50;98920.17;107440;1255;123399;-80
2023/03/10 12:46:27;;;;;;;;;;;;;;;3.53;71.53;98917.84;107429;1256;66777;-80
2023/03/10 12:49:12;;;;;;;;;;;;;;;3.49;70.36;98918.61;108085;1256;123747;-80
2023/03/10 12:51:40;;;;;;;;;;;;;;;3.56;69.90;98915.30;107498;1255;61180;-81
2023/03/10 12:54:25;;;;;;;;;;;;;;;3.62;69.55;98917.34;107375;1256;123679;-82
2023/03/10 12:57:00;;;;;;;;;;;;;;;3.72;69.38;98916.02;107454;1254;73515;-82
2023/03/10 12:59:33;;;;;;;;;;;;;;;3.84;69.22;98919.23;107547;1256;67412;-82
2023/03/10 13:02:01;;;;;;;;;;;;;;;3.91;69.10;98922.16;107349;1255;123356;-82
2023/03/10 13:04:29;;;;;;;;;;;;;;;3.89;68.61;98923.50;107360;1257;60200;-82
2023/03/10 13:06:56;;;;;;;;;;;;;;;3.76;68.51;98925.63;107581;1256;123399;-89
2023/03/10 13:09:44;;;;;;;;;;;;;;;3.70;68.42;98925.85;107727;1255;73657;-87
2023/03/10 13:12:23;;;;;;;;;;;;;;;3.71;68.61;98930.91;107358;1257;124150;-86
2023/03/10 13:14:50;;;;;;;;;;;;;;;3.64;68.32;98933.70;107516;1255;71348;-87
2023/03/10 13:17:24;;;;;;;;;;;;;;;3.52;68.07;98931.84;107415;1257;59401;-86